sensor_id;sensor_type;location;lat;lon;timestamp;P1;durP1;ratioP1;P2;durP2;ratioP2
12780;SDS011;6454;43.304;24.344;2023-02-28T00:00:11;11.43;;;10.23;;
12780;SDS011;6454;43.304;24.344;2023-02-28T00:02:40;14.45;;;12.95;;
12780;SDS011;6454;43.304;24.344;2023-02-28T00:05:08;15.65;;;14.25;;
12780;SDS011;6454;43.304;24.344;2023-02-28T00:07:36;17.55;;;15.88;;
12780;SDS011;6454;43.304;24.344;2023-02-28T00:10:06;18.45;;;16.75;;
12780;SDS011;6454;43.304;24.344;2023-02-28T00:12:35;18.75;;;16.85;;
12780;SDS011;6454;43.304;24.344;2023-02-28T00:15:05;17.45;;;15.70;;
12780;SDS011;6454;43.304;24.344;2023-02-28T00:17:33;16.90;;;15.30;;
12780;SDS011;6454;43.304;24.344;2023-02-28T00:20:00;18.63;;;15.02;;
12780;SDS011;6454;43.304;24.344;2023-02-28T00:22:36;14.50;;;12.65;;
12780;SDS011;6454;43.304;24.344;2023-02-28T00:25:06;10.43;;;9.32;;
12780;SDS011;6454;43.304;24.344;2023-02-28T00:27:34;10.23;;;9.23;;
12780;SDS011;6454;43.304;24.344;2023-02-28T00:30:02;10.52;;;8.65;;
12780;SDS011;6454;43.304;24.344;2023-02-28T00:32:29;10.77;;;9.13;;
12780;SDS011;6454;43.304;24.344;2023-02-28T00:34:56;11.60;;;9.82;;
12780;SDS011;6454;43.304;24.344;2023-02-28T00:37:23;12.65;;;10.15;;
12780;SDS011;6454;43.304;24.344;2023-02-28T00:39:50;11.57;;;10.38;;
12780;SDS011;6454;43.304;24.344;2023-02-28T00:42:18;14.73;;;13.25;;
12780;SDS011;6454;43.304;24.344;2023-02-28T00:44:45;13.15;;;11.73;;
12780;SDS011;6454;43.304;24.344;2023-02-28T00:47:12;9.93;;;8.63;;
12780;SDS011;6454;43.304;24.344;2023-02-28T00:49:39;10.38;;;8.25;;
12780;SDS011;6454;43.304;24.344;2023-02-28T00:52:06;10.23;;;7.90;;
12780;SDS011;6454;43.304;24.344;2023-02-28T00:54:33;9.38;;;7.40;;
12780;SDS011;6454;43.304;24.344;2023-02-28T00:57:00;8.95;;;7.18;;
12780;SDS011;6454;43.304;24.344;2023-02-28T00:59:28;9.13;;;7.65;;
12780;SDS011;6454;43.304;24.344;2023-02-28T01:01:55;8.85;;;7.43;;
12780;SDS011;6454;43.304;24.344;2023-02-28T01:04:21;10.75;;;8.32;;
12780;SDS011;6454;43.304;24.344;2023-02-28T01:06:48;11.32;;;8.70;;
12780;SDS011;6454;43.304;24.344;2023-02-28T01:09:15;10.32;;;8.57;;
12780;SDS011;6454;43.304;24.344;2023-02-28T01:11:42;10.77;;;8.50;;
12780;SDS011;6454;43.304;24.344;2023-02-28T01:14:11;11.48;;;9.73;;
12780;SDS011;6454;43.304;24.344;2023-02-28T01:16:41;12.18;;;9.23;;
12780;SDS011;6454;43.304;24.344;2023-02-28T01:19:08;12.65;;;9.95;;
12780;SDS011;6454;43.304;24.344;2023-02-28T01:21:35;12.45;;;9.80;;
12780;SDS011;6454;43.304;24.344;2023-02-28T01:24:02;12.88;;;10.23;;
12780;SDS011;6454;43.304;24.344;2023-02-28T01:26:30;14.43;;;10.55;;
12780;SDS011;6454;43.304;24.344;2023-02-28T01:28:57;14.63;;;10.48;;
12780;SDS011;6454;43.304;24.344;2023-02-28T01:31:24;14.95;;;11.35;;
12780;SDS011;6454;43.304;24.344;2023-02-28T01:33:53;13.73;;;11.02;;
12780;SDS011;6454;43.304;24.344;2023-02-28T01:36:20;14.35;;;11.35;;
12780;SDS011;6454;43.304;24.344;2023-02-28T01:38:49;14.25;;;10.43;;
12780;SDS011;6454;43.304;24.344;2023-02-28T01:41:17;11.27;;;9.10;;
12780;SDS011;6454;43.304;24.344;2023-02-28T01:43:57;12.50;;;9.90;;
12780;SDS011;6454;43.304;24.344;2023-02-28T01:46:28;10.70;;;8.68;;
12780;SDS011;6454;43.304;24.344;2023-02-28T01:48:57;11.10;;;8.57;;
12780;SDS011;6454;43.304;24.344;2023-02-28T01:51:29;11.18;;;9.25;;
12780;SDS011;6454;43.304;24.344;2023-02-28T01:53:59;11.98;;;9.43;;
12780;SDS011;6454;43.304;24.344;2023-02-28T01:56:31;12.90;;;9.80;;
12780;SDS011;6454;43.304;24.344;2023-02-28T01:59:02;12.48;;;10.15;;
12780;SDS011;6454;43.304;24.344;2023-02-28T02:01:30;11.32;;;9.60;;
12780;SDS011;6454;43.304;24.344;2023-02-28T02:03:58;14.38;;;9.93;;
12780;SDS011;6454;43.304;24.344;2023-02-28T02:06:29;12.88;;;10.93;;
12780;SDS011;6454;43.304;24.344;2023-02-28T02:09:00;13.25;;;10.88;;
12780;SDS011;6454;43.304;24.344;2023-02-28T02:11:28;12.70;;;10.57;;
12780;SDS011;6454;43.304;24.344;2023-02-28T02:14:01;13.60;;;10.98;;
12780;SDS011;6454;43.304;24.344;2023-02-28T02:16:42;14.90;;;11.38;;
12780;SDS011;6454;43.304;24.344;2023-02-28T02:25:23;17.05;;;12.82;;
12780;SDS011;6454;43.304;24.344;2023-02-28T02:28:07;17.33;;;13.48;;
12780;SDS011;6454;43.304;24.344;2023-02-28T02:30:53;20.77;;;14.18;;
12780;SDS011;6454;43.304;24.344;2023-02-28T02:33:45;19.13;;;13.48;;
12780;SDS011;6454;43.304;24.344;2023-02-28T02:36:40;19.08;;;14.82;;
12780;SDS011;6454;43.304;24.344;2023-02-28T02:39:15;22.98;;;15.13;;
12780;SDS011;6454;43.304;24.344;2023-02-28T02:41:46;24.50;;;16.10;;
12780;SDS011;6454;43.304;24.344;2023-02-28T02:44:18;22.13;;;14.65;;
12780;SDS011;6454;43.304;24.344;2023-02-28T02:46:51;24.23;;;15.13;;
12780;SDS011;6454;43.304;24.344;2023-02-28T02:49:22;21.40;;;14.60;;
12780;SDS011;6454;43.304;24.344;2023-02-28T02:51:53;24.67;;;15.02;;
12780;SDS011;6454;43.304;24.344;2023-02-28T02:54:23;20.80;;;14.30;;
12780;SDS011;6454;43.304;24.344;2023-02-28T02:56:54;19.57;;;13.97;;
12780;SDS011;6454;43.304;24.344;2023-02-28T02:59:23;18.50;;;14.07;;
12780;SDS011;6454;43.304;24.344;2023-02-28T03:01:54;19.58;;;14.55;;
12780;SDS011;6454;43.304;24.344;2023-02-28T03:04:24;22.50;;;15.07;;
12780;SDS011;6454;43.304;24.344;2023-02-28T03:06:55;19.33;;;14.93;;
12780;SDS011;6454;43.304;24.344;2023-02-28T03:09:22;26.33;;;15.30;;
12780;SDS011;6454;43.304;24.344;2023-02-28T03:11:49;19.08;;;14.13;;
12780;SDS011;6454;43.304;24.344;2023-02-28T03:17:18;15.73;;;12.43;;
12780;SDS011;6454;43.304;24.344;2023-02-28T03:19:56;15.13;;;12.07;;
12780;SDS011;6454;43.304;24.344;2023-02-28T03:22:42;19.90;;;13.65;;
12780;SDS011;6454;43.304;24.344;2023-02-28T03:25:19;17.97;;;13.27;;
12780;SDS011;6454;43.304;24.344;2023-02-28T03:27:54;15.55;;;13.35;;
12780;SDS011;6454;43.304;24.344;2023-02-28T03:30:29;17.88;;;13.45;;
12780;SDS011;6454;43.304;24.344;2023-02-28T03:33:03;16.83;;;13.48;;
12780;SDS011;6454;43.304;24.344;2023-02-28T03:35:36;14.85;;;12.25;;
12780;SDS011;6454;43.304;24.344;2023-02-28T03:38:09;12.43;;;11.10;;
12780;SDS011;6454;43.304;24.344;2023-02-28T03:40:41;13.75;;;10.93;;
12780;SDS011;6454;43.304;24.344;2023-02-28T03:43:13;14.97;;;11.07;;
12780;SDS011;6454;43.304;24.344;2023-02-28T03:45:45;13.60;;;10.80;;
12780;SDS011;6454;43.304;24.344;2023-02-28T03:48:19;11.98;;;9.90;;
12780;SDS011;6454;43.304;24.344;2023-02-28T03:50:49;13.98;;;10.23;;
12780;SDS011;6454;43.304;24.344;2023-02-28T03:53:22;12.65;;;9.52;;
12780;SDS011;6454;43.304;24.344;2023-02-28T03:55:54;10.17;;;9.03;;
12780;SDS011;6454;43.304;24.344;2023-02-28T03:58:27;12.10;;;9.37;;
12780;SDS011;6454;43.304;24.344;2023-02-28T04:00:58;12.20;;;9.20;;
12780;SDS011;6454;43.304;24.344;2023-02-28T04:03:33;11.97;;;9.23;;
12780;SDS011;6454;43.304;24.344;2023-02-28T04:06:01;10.35;;;9.30;;
12780;SDS011;6454;43.304;24.344;2023-02-28T04:08:30;14.50;;;10.10;;
12780;SDS011;6454;43.304;24.344;2023-02-28T04:10:58;12.10;;;8.43;;
12780;SDS011;6454;43.304;24.344;2023-02-28T04:13:29;13.40;;;9.37;;
12780;SDS011;6454;43.304;24.344;2023-02-28T04:15:56;12.00;;;9.05;;
12780;SDS011;6454;43.304;24.344;2023-02-28T04:18:23;13.63;;;9.43;;
12780;SDS011;6454;43.304;24.344;2023-02-28T04:20:50;12.00;;;8.93;;
12780;SDS011;6454;43.304;24.344;2023-02-28T04:23:16;13.03;;;8.90;;
12780;SDS011;6454;43.304;24.344;2023-02-28T04:25:45;14.00;;;10.00;;
12780;SDS011;6454;43.304;24.344;2023-02-28T04:28:11;11.82;;;10.13;;
12780;SDS011;6454;43.304;24.344;2023-02-28T04:30:38;12.70;;;9.70;;
12780;SDS011;6454;43.304;24.344;2023-02-28T04:33:05;12.07;;;9.30;;
12780;SDS011;6454;43.304;24.344;2023-02-28T04:35:32;12.93;;;9.63;;
12780;SDS011;6454;43.304;24.344;2023-02-28T04:37:59;10.67;;;9.00;;
12780;SDS011;6454;43.304;24.344;2023-02-28T04:40:26;10.17;;;8.97;;
12780;SDS011;6454;43.304;24.344;2023-02-28T04:42:54;10.77;;;9.67;;
12780;SDS011;6454;43.304;24.344;2023-02-28T04:45:21;10.53;;;9.00;;
12780;SDS011;6454;43.304;24.344;2023-02-28T04:47:47;11.53;;;9.50;;
12780;SDS011;6454;43.304;24.344;2023-02-28T04:50:14;11.13;;;9.70;;
12780;SDS011;6454;43.304;24.344;2023-02-28T04:52:41;10.80;;;9.63;;
12780;SDS011;6454;43.304;24.344;2023-02-28T04:55:08;10.17;;;9.07;;
12780;SDS011;6454;43.304;24.344;2023-02-28T04:57:35;10.00;;;8.77;;
12780;SDS011;6454;43.304;24.344;2023-02-28T05:00:04;11.33;;;9.23;;
12780;SDS011;6454;43.304;24.344;2023-02-28T05:02:36;10.80;;;9.53;;
12780;SDS011;6454;43.304;24.344;2023-02-28T05:05:03;10.67;;;9.37;;
12780;SDS011;6454;43.304;24.344;2023-02-28T05:07:30;11.50;;;10.20;;
12780;SDS011;6454;43.304;24.344;2023-02-28T05:09:57;12.53;;;10.03;;
12780;SDS011;6454;43.304;24.344;2023-02-28T05:12:24;12.20;;;10.60;;
12780;SDS011;6454;43.304;24.344;2023-02-28T05:14:50;12.67;;;10.10;;
12780;SDS011;6454;43.304;24.344;2023-02-28T05:17:19;12.50;;;9.30;;
12780;SDS011;6454;43.304;24.344;2023-02-28T05:19:45;10.53;;;9.43;;
12780;SDS011;6454;43.304;24.344;2023-02-28T05:22:13;10.47;;;9.13;;
12780;SDS011;6454;43.304;24.344;2023-02-28T05:24:41;11.33;;;9.13;;
12780;SDS011;6454;43.304;24.344;2023-02-28T05:27:08;10.87;;;9.70;;
12780;SDS011;6454;43.304;24.344;2023-02-28T05:29:35;11.73;;;9.93;;
12780;SDS011;6454;43.304;24.344;2023-02-28T05:32:07;11.47;;;10.23;;
12780;SDS011;6454;43.304;24.344;2023-02-28T05:34:37;11.17;;;9.97;;
12780;SDS011;6454;43.304;24.344;2023-02-28T05:37:04;11.60;;;10.40;;
12780;SDS011;6454;43.304;24.344;2023-02-28T05:39:31;11.07;;;9.97;;
12780;SDS011;6454;43.304;24.344;2023-02-28T05:41:58;12.67;;;10.40;;
12780;SDS011;6454;43.304;24.344;2023-02-28T05:44:25;12.00;;;10.23;;
12780;SDS011;6454;43.304;24.344;2023-02-28T05:46:52;11.47;;;9.83;;
12780;SDS011;6454;43.304;24.344;2023-02-28T05:49:18;13.00;;;10.03;;
12780;SDS011;6454;43.304;24.344;2023-02-28T05:51:46;10.43;;;9.43;;
12780;SDS011;6454;43.304;24.344;2023-02-28T05:54:13;10.70;;;9.60;;
12780;SDS011;6454;43.304;24.344;2023-02-28T05:56:41;11.13;;;9.93;;
12780;SDS011;6454;43.304;24.344;2023-02-28T05:59:09;10.30;;;9.23;;
12780;SDS011;6454;43.304;24.344;2023-02-28T06:01:36;9.57;;;8.57;;
12780;SDS011;6454;43.304;24.344;2023-02-28T06:04:05;12.63;;;10.47;;
12780;SDS011;6454;43.304;24.344;2023-02-28T06:06:33;11.07;;;9.13;;
12780;SDS011;6454;43.304;24.344;2023-02-28T06:09:02;9.33;;;8.40;;
12780;SDS011;6454;43.304;24.344;2023-02-28T06:11:30;9.80;;;8.83;;
12780;SDS011;6454;43.304;24.344;2023-02-28T06:13:58;9.97;;;8.60;;
12780;SDS011;6454;43.304;24.344;2023-02-28T06:16:26;10.97;;;9.20;;
12780;SDS011;6454;43.304;24.344;2023-02-28T06:18:53;10.97;;;9.87;;
12780;SDS011;6454;43.304;24.344;2023-02-28T06:21:21;11.60;;;9.30;;
12780;SDS011;6454;43.304;24.344;2023-02-28T06:23:48;10.83;;;9.73;;
12780;SDS011;6454;43.304;24.344;2023-02-28T06:26:16;11.03;;;9.37;;
12780;SDS011;6454;43.304;24.344;2023-02-28T06:28:43;10.83;;;8.77;;
12780;SDS011;6454;43.304;24.344;2023-02-28T06:31:11;12.30;;;9.80;;
12780;SDS011;6454;43.304;24.344;2023-02-28T06:33:39;10.77;;;9.67;;
12780;SDS011;6454;43.304;24.344;2023-02-28T06:36:07;11.00;;;9.37;;
12780;SDS011;6454;43.304;24.344;2023-02-28T06:38:35;10.90;;;9.80;;
12780;SDS011;6454;43.304;24.344;2023-02-28T06:41:03;11.03;;;9.80;;
12780;SDS011;6454;43.304;24.344;2023-02-28T06:43:33;10.53;;;9.53;;
12780;SDS011;6454;43.304;24.344;2023-02-28T06:46:03;11.03;;;9.93;;
12780;SDS011;6454;43.304;24.344;2023-02-28T06:48:31;11.07;;;9.97;;
12780;SDS011;6454;43.304;24.344;2023-02-28T06:51:02;12.47;;;9.77;;
12780;SDS011;6454;43.304;24.344;2023-02-28T06:53:30;12.37;;;9.10;;
12780;SDS011;6454;43.304;24.344;2023-02-28T06:55:57;10.77;;;9.67;;
12780;SDS011;6454;43.304;24.344;2023-02-28T06:58:24;13.60;;;10.73;;
12780;SDS011;6454;43.304;24.344;2023-02-28T07:00:52;12.63;;;10.50;;
12780;SDS011;6454;43.304;24.344;2023-02-28T07:03:19;11.40;;;10.17;;
12780;SDS011;6454;43.304;24.344;2023-02-28T07:05:46;10.77;;;9.67;;
12780;SDS011;6454;43.304;24.344;2023-02-28T07:08:13;13.43;;;11.30;;
12780;SDS011;6454;43.304;24.344;2023-02-28T07:10:40;15.07;;;11.77;;
12780;SDS011;6454;43.304;24.344;2023-02-28T07:13:08;14.20;;;11.03;;
12780;SDS011;6454;43.304;24.344;2023-02-28T07:15:35;13.33;;;11.53;;
12780;SDS011;6454;43.304;24.344;2023-02-28T07:18:03;13.07;;;11.13;;
12780;SDS011;6454;43.304;24.344;2023-02-28T07:20:30;12.53;;;11.23;;
12780;SDS011;6454;43.304;24.344;2023-02-28T07:22:57;14.20;;;11.93;;
12780;SDS011;6454;43.304;24.344;2023-02-28T07:25:24;12.43;;;10.80;;
12780;SDS011;6454;43.304;24.344;2023-02-28T07:27:52;12.63;;;10.50;;
12780;SDS011;6454;43.304;24.344;2023-02-28T07:30:19;11.50;;;9.93;;
12780;SDS011;6454;43.304;24.344;2023-02-28T07:32:46;11.80;;;10.60;;
12780;SDS011;6454;43.304;24.344;2023-02-28T07:35:15;11.97;;;9.97;;
12780;SDS011;6454;43.304;24.344;2023-02-28T07:37:41;11.23;;;9.63;;
12780;SDS011;6454;43.304;24.344;2023-02-28T07:40:09;12.00;;;9.80;;
12780;SDS011;6454;43.304;24.344;2023-02-28T07:42:38;12.33;;;9.70;;
12780;SDS011;6454;43.304;24.344;2023-02-28T07:45:06;10.60;;;9.50;;
12780;SDS011;6454;43.304;24.344;2023-02-28T07:47:36;13.33;;;11.47;;
12780;SDS011;6454;43.304;24.344;2023-02-28T07:50:03;16.60;;;11.83;;
12780;SDS011;6454;43.304;24.344;2023-02-28T07:52:32;13.13;;;10.20;;
12780;SDS011;6454;43.304;24.344;2023-02-28T07:54:59;14.20;;;10.90;;
12780;SDS011;6454;43.304;24.344;2023-02-28T07:57:26;12.03;;;10.70;;
12780;SDS011;6454;43.304;24.344;2023-02-28T07:59:52;12.10;;;9.77;;
12780;SDS011;6454;43.304;24.344;2023-02-28T08:02:19;10.63;;;9.53;;
12780;SDS011;6454;43.304;24.344;2023-02-28T08:04:46;12.90;;;11.07;;
12780;SDS011;6454;43.304;24.344;2023-02-28T08:07:13;12.17;;;9.83;;
12780;SDS011;6454;43.304;24.344;2023-02-28T08:09:42;10.63;;;9.40;;
12780;SDS011;6454;43.304;24.344;2023-02-28T08:12:10;11.43;;;9.47;;
12780;SDS011;6454;43.304;24.344;2023-02-28T08:14:37;10.40;;;9.40;;
12780;SDS011;6454;43.304;24.344;2023-02-28T08:17:04;10.93;;;9.33;;
12780;SDS011;6454;43.304;24.344;2023-02-28T08:19:31;10.23;;;9.13;;
12780;SDS011;6454;43.304;24.344;2023-02-28T08:21:58;10.87;;;9.30;;
12780;SDS011;6454;43.304;24.344;2023-02-28T08:24:25;10.83;;;9.67;;
12780;SDS011;6454;43.304;24.344;2023-02-28T08:26:53;12.53;;;9.37;;
12780;SDS011;6454;43.304;24.344;2023-02-28T08:29:20;11.20;;;10.07;;
12780;SDS011;6454;43.304;24.344;2023-02-28T08:31:47;16.50;;;10.13;;
12780;SDS011;6454;43.304;24.344;2023-02-28T08:34:14;13.30;;;10.43;;
12780;SDS011;6454;43.304;24.344;2023-02-28T08:36:42;11.83;;;10.27;;
12780;SDS011;6454;43.304;24.344;2023-02-28T08:39:10;10.23;;;9.13;;
12780;SDS011;6454;43.304;24.344;2023-02-28T08:41:37;10.67;;;9.07;;
12780;SDS011;6454;43.304;24.344;2023-02-28T08:44:05;10.87;;;9.77;;
12780;SDS011;6454;43.304;24.344;2023-02-28T08:46:32;12.50;;;10.23;;
12780;SDS011;6454;43.304;24.344;2023-02-28T08:48:59;11.00;;;9.83;;
12780;SDS011;6454;43.304;24.344;2023-02-28T08:51:27;11.80;;;10.30;;
12780;SDS011;6454;43.304;24.344;2023-02-28T08:53:55;12.00;;;9.67;;
12780;SDS011;6454;43.304;24.344;2023-02-28T08:56:25;11.90;;;9.70;;
12780;SDS011;6454;43.304;24.344;2023-02-28T08:58:54;11.77;;;10.07;;
12780;SDS011;6454;43.304;24.344;2023-02-28T09:01:23;12.80;;;10.70;;
12780;SDS011;6454;43.304;24.344;2023-02-28T09:03:53;13.17;;;9.73;;
12780;SDS011;6454;43.304;24.344;2023-02-28T09:06:22;12.23;;;10.03;;
12780;SDS011;6454;43.304;24.344;2023-02-28T09:08:50;11.43;;;10.30;;
12780;SDS011;6454;43.304;24.344;2023-02-28T09:11:18;13.90;;;10.80;;
12780;SDS011;6454;43.304;24.344;2023-02-28T09:13:45;14.00;;;10.63;;
12780;SDS011;6454;43.304;24.344;2023-02-28T09:16:13;12.67;;;10.90;;
12780;SDS011;6454;43.304;24.344;2023-02-28T09:18:43;13.27;;;11.00;;
12780;SDS011;6454;43.304;24.344;2023-02-28T09:21:11;15.93;;;10.97;;
12780;SDS011;6454;43.304;24.344;2023-02-28T09:23:39;13.20;;;11.37;;
12780;SDS011;6454;43.304;24.344;2023-02-28T09:26:06;15.93;;;11.40;;
12780;SDS011;6454;43.304;24.344;2023-02-28T09:28:34;12.93;;;10.77;;
12780;SDS011;6454;43.304;24.344;2023-02-28T09:31:01;13.90;;;11.10;;
12780;SDS011;6454;43.304;24.344;2023-02-28T09:33:29;16.53;;;11.77;;
12780;SDS011;6454;43.304;24.344;2023-02-28T09:36:02;14.03;;;11.23;;
12780;SDS011;6454;43.304;24.344;2023-02-28T09:38:29;15.83;;;10.80;;
12780;SDS011;6454;43.304;24.344;2023-02-28T09:40:57;14.68;;;11.40;;
12780;SDS011;6454;43.304;24.344;2023-02-28T09:43:26;13.53;;;10.37;;
12780;SDS011;6454;43.304;24.344;2023-02-28T09:45:59;13.20;;;10.97;;
12780;SDS011;6454;43.304;24.344;2023-02-28T09:48:32;12.38;;;10.95;;
12780;SDS011;6454;43.304;24.344;2023-02-28T09:51:04;13.10;;;11.13;;
12780;SDS011;6454;43.304;24.344;2023-02-28T09:53:41;13.30;;;10.70;;
12780;SDS011;6454;43.304;24.344;2023-02-28T09:56:09;12.47;;;11.17;;
12780;SDS011;6454;43.304;24.344;2023-02-28T09:58:41;13.10;;;9.87;;
12780;SDS011;6454;43.304;24.344;2023-02-28T10:01:18;13.43;;;10.97;;
12780;SDS011;6454;43.304;24.344;2023-02-28T10:03:50;14.23;;;10.50;;
12780;SDS011;6454;43.304;24.344;2023-02-28T10:06:26;14.60;;;10.87;;
12780;SDS011;6454;43.304;24.344;2023-02-28T10:08:58;12.03;;;10.37;;
12780;SDS011;6454;43.304;24.344;2023-02-28T10:11:28;14.67;;;10.77;;
12780;SDS011;6454;43.304;24.344;2023-02-28T10:13:59;14.07;;;10.83;;
12780;SDS011;6454;43.304;24.344;2023-02-28T10:16:31;12.68;;;10.40;;
12780;SDS011;6454;43.304;24.344;2023-02-28T10:19:02;13.53;;;11.07;;
12780;SDS011;6454;43.304;24.344;2023-02-28T10:21:35;15.87;;;12.00;;
12780;SDS011;6454;43.304;24.344;2023-02-28T10:24:11;16.13;;;12.47;;
12780;SDS011;6454;43.304;24.344;2023-02-28T10:26:46;14.20;;;11.53;;
12780;SDS011;6454;43.304;24.344;2023-02-28T10:29:14;15.40;;;11.70;;
12780;SDS011;6454;43.304;24.344;2023-02-28T10:31:41;13.63;;;11.60;;
12780;SDS011;6454;43.304;24.344;2023-02-28T10:34:08;15.47;;;12.07;;
12780;SDS011;6454;43.304;24.344;2023-02-28T10:36:40;14.13;;;11.73;;
12780;SDS011;6454;43.304;24.344;2023-02-28T10:42:04;14.13;;;11.53;;
12780;SDS011;6454;43.304;24.344;2023-02-28T10:44:44;16.83;;;13.50;;
12780;SDS011;6454;43.304;24.344;2023-02-28T10:47:13;14.37;;;12.03;;
12780;SDS011;6454;43.304;24.344;2023-02-28T10:49:43;14.57;;;11.43;;
12780;SDS011;6454;43.304;24.344;2023-02-28T10:52:15;13.47;;;11.17;;
12780;SDS011;6454;43.304;24.344;2023-02-28T10:55:13;17.30;;;12.70;;
12780;SDS011;6454;43.304;24.344;2023-02-28T10:57:42;13.73;;;12.17;;
12780;SDS011;6454;43.304;24.344;2023-02-28T11:00:12;16.27;;;12.87;;
12780;SDS011;6454;43.304;24.344;2023-02-28T11:02:42;14.87;;;12.87;;
12780;SDS011;6454;43.304;24.344;2023-02-28T11:05:23;17.63;;;12.87;;
12780;SDS011;6454;43.304;24.344;2023-02-28T11:07:54;16.83;;;12.53;;
12780;SDS011;6454;43.304;24.344;2023-02-28T11:10:25;14.97;;;12.40;;
12780;SDS011;6454;43.304;24.344;2023-02-28T11:12:55;15.17;;;12.03;;
12780;SDS011;6454;43.304;24.344;2023-02-28T11:15:23;13.73;;;11.77;;
12780;SDS011;6454;43.304;24.344;2023-02-28T11:17:53;14.27;;;11.73;;
12780;SDS011;6454;43.304;24.344;2023-02-28T11:20:21;15.50;;;12.03;;
12780;SDS011;6454;43.304;24.344;2023-02-28T11:22:51;15.00;;;11.43;;
12780;SDS011;6454;43.304;24.344;2023-02-28T11:25:23;12.83;;;11.13;;
12780;SDS011;6454;43.304;24.344;2023-02-28T11:27:52;15.57;;;12.03;;
12780;SDS011;6454;43.304;24.344;2023-02-28T11:30:24;15.63;;;12.13;;
12780;SDS011;6454;43.304;24.344;2023-02-28T11:32:55;13.90;;;11.00;;
12780;SDS011;6454;43.304;24.344;2023-02-28T11:35:23;15.57;;;11.80;;
12780;SDS011;6454;43.304;24.344;2023-02-28T11:37:55;15.63;;;12.93;;
12780;SDS011;6454;43.304;24.344;2023-02-28T11:40:26;16.00;;;13.07;;
12780;SDS011;6454;43.304;24.344;2023-02-28T11:43:01;16.00;;;12.97;;
12780;SDS011;6454;43.304;24.344;2023-02-28T11:45:39;17.83;;;14.50;;
12780;SDS011;6454;43.304;24.344;2023-02-28T11:48:14;18.03;;;13.30;;
12780;SDS011;6454;43.304;24.344;2023-02-28T11:50:50;14.43;;;11.90;;
12780;SDS011;6454;43.304;24.344;2023-02-28T11:53:39;16.17;;;13.10;;
12780;SDS011;6454;43.304;24.344;2023-02-28T11:56:18;18.87;;;13.83;;
12780;SDS011;6454;43.304;24.344;2023-02-28T11:58:54;17.10;;;14.07;;
12780;SDS011;6454;43.304;24.344;2023-02-28T12:01:33;17.80;;;13.33;;
12780;SDS011;6454;43.304;24.344;2023-02-28T12:04:14;18.90;;;14.43;;
12780;SDS011;6454;43.304;24.344;2023-02-28T12:06:50;17.00;;;15.13;;
12780;SDS011;6454;43.304;24.344;2023-02-28T12:09:34;19.10;;;14.27;;
12780;SDS011;6454;43.304;24.344;2023-02-28T12:12:15;18.80;;;14.53;;
12780;SDS011;6454;43.304;24.344;2023-02-28T12:14:56;18.20;;;15.37;;
12780;SDS011;6454;43.304;24.344;2023-02-28T12:17:46;15.83;;;13.67;;
12780;SDS011;6454;43.304;24.344;2023-02-28T12:20:23;17.10;;;13.60;;
12780;SDS011;6454;43.304;24.344;2023-02-28T12:23:00;16.70;;;13.33;;
12780;SDS011;6454;43.304;24.344;2023-02-28T12:25:56;16.57;;;14.00;;
12780;SDS011;6454;43.304;24.344;2023-02-28T12:28:32;15.80;;;13.67;;
12780;SDS011;6454;43.304;24.344;2023-02-28T12:31:04;17.70;;;15.13;;
12780;SDS011;6454;43.304;24.344;2023-02-28T12:33:36;19.80;;;14.77;;
12780;SDS011;6454;43.304;24.344;2023-02-28T12:36:10;19.10;;;13.33;;
12780;SDS011;6454;43.304;24.344;2023-02-28T12:38:43;17.23;;;14.03;;
12780;SDS011;6454;43.304;24.344;2023-02-28T12:41:13;16.40;;;13.63;;
12780;SDS011;6454;43.304;24.344;2023-02-28T12:43:46;17.17;;;13.93;;
12780;SDS011;6454;43.304;24.344;2023-02-28T12:46:17;17.03;;;13.67;;
12780;SDS011;6454;43.304;24.344;2023-02-28T12:48:48;19.60;;;14.03;;
12780;SDS011;6454;43.304;24.344;2023-02-28T12:51:20;19.20;;;14.17;;
12780;SDS011;6454;43.304;24.344;2023-02-28T12:53:50;17.83;;;14.03;;
12780;SDS011;6454;43.304;24.344;2023-02-28T12:56:29;16.87;;;13.63;;
12780;SDS011;6454;43.304;24.344;2023-02-28T12:59:12;15.63;;;12.27;;
12780;SDS011;6454;43.304;24.344;2023-02-28T13:01:50;16.97;;;13.97;;
12780;SDS011;6454;43.304;24.344;2023-02-28T13:07:40;16.27;;;13.47;;
12780;SDS011;6454;43.304;24.344;2023-02-28T13:10:25;15.40;;;12.67;;
12780;SDS011;6454;43.304;24.344;2023-02-28T13:13:05;17.60;;;13.50;;
12780;SDS011;6454;43.304;24.344;2023-02-28T13:15:34;16.17;;;12.90;;
12780;SDS011;6454;43.304;24.344;2023-02-28T13:18:20;17.13;;;13.60;;
12780;SDS011;6454;43.304;24.344;2023-02-28T13:20:55;16.60;;;13.27;;
12780;SDS011;6454;43.304;24.344;2023-02-28T13:23:39;17.17;;;13.30;;
12780;SDS011;6454;43.304;24.344;2023-02-28T13:26:23;17.90;;;13.40;;
12780;SDS011;6454;43.304;24.344;2023-02-28T13:29:29;17.00;;;14.13;;
12780;SDS011;6454;43.304;24.344;2023-02-28T13:38:09;15.57;;;13.35;;
12780;SDS011;6454;43.304;24.344;2023-02-28T13:40:47;16.50;;;12.87;;
12780;SDS011;6454;43.304;24.344;2023-02-28T13:43:16;18.33;;;14.00;;
12780;SDS011;6454;43.304;24.344;2023-02-28T13:48:39;17.33;;;13.67;;
12780;SDS011;6454;43.304;24.344;2023-02-28T13:54:09;22.50;;;15.80;;
12780;SDS011;6454;43.304;24.344;2023-02-28T13:56:51;18.33;;;14.13;;
12780;SDS011;6454;43.304;24.344;2023-02-28T13:59:32;17.67;;;14.10;;
12780;SDS011;6454;43.304;24.344;2023-02-28T14:02:21;18.13;;;14.53;;
12780;SDS011;6454;43.304;24.344;2023-02-28T14:05:16;20.73;;;16.63;;
12780;SDS011;6454;43.304;24.344;2023-02-28T14:07:45;24.97;;;18.90;;
12780;SDS011;6454;43.304;24.344;2023-02-28T14:10:21;26.83;;;18.63;;
12780;SDS011;6454;43.304;24.344;2023-02-28T14:13:02;19.25;;;14.68;;
12780;SDS011;6454;43.304;24.344;2023-02-28T14:15:44;19.90;;;15.32;;
12780;SDS011;6454;43.304;24.344;2023-02-28T14:18:15;20.20;;;14.37;;
12780;SDS011;6454;43.304;24.344;2023-02-28T14:20:48;19.53;;;14.13;;
12780;SDS011;6454;43.304;24.344;2023-02-28T14:23:22;18.83;;;13.77;;
12780;SDS011;6454;43.304;24.344;2023-02-28T14:26:02;19.27;;;14.43;;
12780;SDS011;6454;43.304;24.344;2023-02-28T14:28:39;18.23;;;13.03;;
12780;SDS011;6454;43.304;24.344;2023-02-28T14:31:22;15.00;;;12.50;;
12780;SDS011;6454;43.304;24.344;2023-02-28T14:33:59;14.93;;;12.20;;
12780;SDS011;6454;43.304;24.344;2023-02-28T14:36:40;13.57;;;11.23;;
12780;SDS011;6454;43.304;24.344;2023-02-28T14:39:11;15.67;;;12.23;;
12780;SDS011;6454;43.304;24.344;2023-02-28T14:41:41;14.80;;;12.20;;
12780;SDS011;6454;43.304;24.344;2023-02-28T14:44:14;15.83;;;12.40;;
12780;SDS011;6454;43.304;24.344;2023-02-28T14:46:42;13.27;;;11.37;;
12780;SDS011;6454;43.304;24.344;2023-02-28T14:49:13;15.20;;;11.87;;
12780;SDS011;6454;43.304;24.344;2023-02-28T14:51:45;14.73;;;11.97;;
12780;SDS011;6454;43.304;24.344;2023-02-28T14:54:14;15.10;;;13.50;;
12780;SDS011;6454;43.304;24.344;2023-02-28T14:56:42;15.38;;;12.73;;
12780;SDS011;6454;43.304;24.344;2023-02-28T14:59:23;16.63;;;12.13;;
12780;SDS011;6454;43.304;24.344;2023-02-28T15:01:52;15.73;;;12.60;;
12780;SDS011;6454;43.304;24.344;2023-02-28T15:04:54;14.43;;;11.80;;
12780;SDS011;6454;43.304;24.344;2023-02-28T15:07:24;13.13;;;11.73;;
12780;SDS011;6454;43.304;24.344;2023-02-28T15:10:11;13.70;;;11.43;;
12780;SDS011;6454;43.304;24.344;2023-02-28T15:12:44;12.20;;;10.67;;
12780;SDS011;6454;43.304;24.344;2023-02-28T15:15:16;13.80;;;11.90;;